Terminal Aerodrome Forecast
Issued by NWS Charleston, WV

Home | Current Version | Previous Version | Text Only | Print | Product List | Glossary On
Versions: 1 2 3 4 5 6 7 8 9 10 11 12 13 14 15 16 17 18 19 20 21 22 23 24 25 26 27 28 29 30 31 32
000
FTUS41 KRLX 211400 AAB
TAFBKW
TAF AMD
KBKW 211406Z 2114/2212 24007KT P6SM OVC008
     FM211500 27006KT P6SM BKN005
     FM211700 29008KT P6SM OVC010
     FM212000 30009KT P6SM OVC015
     FM220000 31008KT P6SM OVC020
     FM220600 31007KT P6SM OVC018
     FM221000 31006KT P6SM OVC015=

USA.gov is the U.S. government's official web portal to all federal, state and local government web resources and services.